Time;durP1;ratioP1;P1;durP2;ratioP2;P2;SDS_P1;SDS_P2;PMS_P1;PMS_P2;Temp;Humidity;BMP_temperature;BMP_pressure;BME280_temperature;BME280_humidity;BME280_pressure;Samples;Min_cycle;Max_cycle;Signal;HPM_P1;HPM_P2
2023/05/08 00:02:04;;;;;;;10.73;7.13;;;;;;;;;;5012232;28;20140;-57
2023/05/08 00:04:30;;;;;;;12.35;7.53;;;;;;;;;;5012891;28;20940;-57
2023/05/08 00:06:56;;;;;;;17.92;7.15;;;;;;;;;;5012908;28;20054;-57
2023/05/08 00:09:22;;;;;;;13.55;8.13;;;;;;;;;;5012070;28;20540;-57
2023/05/08 00:11:48;;;;;;;11.55;6.60;;;;;;;;;;5008222;28;20126;-57
2023/05/08 00:14:14;;;;;;;13.50;7.55;;;;;;;;;;5013286;28;20582;-57
2023/05/08 00:16:40;;;;;;;11.38;6.80;;;;;;;;;;5012758;28;20068;-57
2023/05/08 00:19:07;;;;;;;14.55;8.05;;;;;;;;;;5013070;28;20042;-57
2023/05/08 00:21:33;;;;;;;12.45;7.32;;;;;;;;;;5010687;28;20042;-57
2023/05/08 00:23:59;;;;;;;13.75;7.40;;;;;;;;;;5012643;28;20042;-57
2023/05/08 00:26:25;;;;;;;10.15;7.13;;;;;;;;;;5010722;28;20099;-57
2023/05/08 00:28:52;;;;;;;12.93;6.72;;;;;;;;;;5009627;28;20050;-57
2023/05/08 00:31:18;;;;;;;17.40;8.15;;;;;;;;;;5012886;28;20081;-57
2023/05/08 00:33:44;;;;;;;12.18;7.43;;;;;;;;;;5011723;28;20037;-58
2023/05/08 00:36:11;;;;;;;13.55;6.78;;;;;;;;;;5027217;28;20045;-57
2023/05/08 00:38:37;;;;;;;11.05;6.85;;;;;;;;;;5012684;28;20065;-57
2023/05/08 00:41:03;;;;;;;13.70;7.20;;;;;;;;;;5013582;28;20037;-57
2023/05/08 00:43:29;;;;;;;11.05;7.65;;;;;;;;;;5011687;28;20099;-58
2023/05/08 00:45:56;;;;;;;12.20;6.32;;;;;;;;;;5029255;28;20045;-57
2023/05/08 00:48:23;;;;;;;10.93;6.47;;;;;;;;;;5014429;28;20181;-57
2023/05/08 00:50:50;;;;;;;9.55;5.82;;;;;;;;;;5016355;28;20034;-57
2023/05/08 00:53:16;;;;;;;15.45;6.60;;;;;;;;;;5014689;28;20038;-57
2023/05/08 00:55:43;;;;;;;12.40;6.00;;;;;;;;;;5012186;28;20069;-59
2023/05/08 00:58:09;;;;;;;11.90;7.18;;;;;;;;;;5007204;28;20639;-59
2023/05/08 01:00:36;;;;;;;11.93;6.47;;;;;;;;;;5014341;28;20129;-59
2023/05/08 01:03:02;;;;;;;10.05;6.70;;;;;;;;;;5013274;28;20049;-60
2023/05/08 01:05:29;;;;;;;15.23;7.93;;;;;;;;;;5012821;28;20734;-60
2023/05/08 01:07:55;;;;;;;21.58;6.03;;;;;;;;;;5015325;28;20148;-60
2023/05/08 01:10:21;;;;;;;15.65;7.60;;;;;;;;;;5012958;28;20060;-59
2023/05/08 01:12:55;;;;;;;10.05;6.90;;;;;;;;;;5014755;28;20126;-60
2023/05/08 01:15:26;;;;;;;11.40;7.00;;;;;;;;;;5014678;28;20048;-60
2023/05/08 01:17:52;;;;;;;17.10;6.75;;;;;;;;;;5014995;28;20081;-59
2023/05/08 01:20:18;;;;;;;12.25;7.82;;;;;;;;;;5011883;28;20046;-60
2023/05/08 01:23:20;;;;;;;17.38;6.93;;;;;;;;;;5015547;28;20053;-59
2023/05/08 01:25:55;;;;;;;14.68;8.27;;;;;;;;;;5031549;28;21510;-60
2023/05/08 01:28:32;;;;;;;10.00;6.22;;;;;;;;;;5017867;28;20054;-59
2023/05/08 01:31:05;;;;;;;16.42;9.02;;;;;;;;;;5007938;28;20153;-59
2023/05/08 01:33:45;;;;;;;15.13;6.80;;;;;;;;;;5012701;28;20034;-60
2023/05/08 01:36:26;;;;;;;10.30;6.80;;;;;;;;;;5014276;28;20053;-59
2023/05/08 01:38:58;;;;;;;15.18;8.98;;;;;;;;;;5015309;28;20085;-57
2023/05/08 01:41:27;;;;;;;11.95;6.70;;;;;;;;;;5015121;28;20045;-57
2023/05/08 01:43:53;;;;;;;13.95;8.45;;;;;;;;;;5015819;28;20054;-58
2023/05/08 01:46:24;;;;;;;9.95;6.53;;;;;;;;;;5030741;28;20038;-58
2023/05/08 01:48:59;;;;;;;10.98;7.70;;;;;;;;;;5014547;28;20045;-57
2023/05/08 01:51:28;;;;;;;13.68;8.80;;;;;;;;;;5012701;28;20121;-57
2023/05/08 01:54:00;;;;;;;13.23;7.93;;;;;;;;;;5014934;28;20034;-57
2023/05/08 01:56:28;;;;;;;12.73;8.02;;;;;;;;;;5011340;28;20034;-57
2023/05/08 01:58:55;;;;;;;16.02;8.75;;;;;;;;;;5013996;28;20084;-57
2023/05/08 02:01:23;;;;;;;15.50;7.35;;;;;;;;;;5012357;28;20042;-57
2023/05/08 02:03:49;;;;;;;16.35;8.70;;;;;;;;;;5045950;28;20049;-57
2023/05/08 02:06:17;;;;;;;12.23;8.43;;;;;;;;;;5043046;28;20061;-57
2023/05/08 02:08:44;;;;;;;17.23;7.90;;;;;;;;;;5011025;28;20052;-58
2023/05/08 02:11:11;;;;;;;13.98;7.72;;;;;;;;;;5013993;28;20049;-58
2023/05/08 02:13:38;;;;;;;13.63;7.97;;;;;;;;;;5013268;28;20049;-57
2023/05/08 02:16:06;;;;;;;17.23;7.72;;;;;;;;;;5009119;28;20428;-57
2023/05/08 02:18:32;;;;;;;13.25;7.00;;;;;;;;;;5012660;28;20046;-58
2023/05/08 02:20:59;;;;;;;12.68;6.05;;;;;;;;;;5008631;28;20053;-57
2023/05/08 02:23:25;;;;;;;12.85;6.68;;;;;;;;;;5012114;28;21052;-58
2023/05/08 02:25:52;;;;;;;13.50;7.40;;;;;;;;;;5010194;28;20077;-57
2023/05/08 02:28:19;;;;;;;14.30;7.80;;;;;;;;;;5012909;28;20042;-58
2023/05/08 02:30:46;;;;;;;14.25;7.55;;;;;;;;;;5012527;28;20038;-57
2023/05/08 02:33:13;;;;;;;15.85;7.18;;;;;;;;;;5011388;28;20120;-57
2023/05/08 02:35:39;;;;;;;16.65;8.95;;;;;;;;;;5045392;28;20061;-57
2023/05/08 02:38:09;;;;;;;12.85;6.93;;;;;;;;;;5013847;28;20050;-58
2023/05/08 02:40:36;;;;;;;16.80;7.22;;;;;;;;;;5013529;28;20053;-57
2023/05/08 02:43:02;;;;;;;11.65;8.20;;;;;;;;;;5011609;28;20081;-57
2023/05/08 02:45:32;;;;;;;13.02;7.70;;;;;;;;;;5006187;28;20057;-57
2023/05/08 02:48:07;;;;;;;19.83;8.35;;;;;;;;;;5012065;28;20041;-57
2023/05/08 02:50:45;;;;;;;11.27;6.95;;;;;;;;;;5010965;28;20053;-57
2023/05/08 02:53:15;;;;;;;15.02;8.05;;;;;;;;;;5012431;28;20064;-57
2023/05/08 02:55:48;;;;;;;13.52;7.15;;;;;;;;;;5013658;28;20034;-57
2023/05/08 02:58:37;;;;;;;15.35;8.43;;;;;;;;;;5009603;28;20049;-57
2023/05/08 03:01:12;;;;;;;14.82;7.88;;;;;;;;;;5004213;28;20058;-57
2023/05/08 03:03:46;;;;;;;12.80;7.20;;;;;;;;;;5011851;28;20052;-57
2023/05/08 03:06:13;;;;;;;13.75;6.90;;;;;;;;;;5011256;28;20634;-57
2023/05/08 03:08:39;;;;;;;15.32;7.28;;;;;;;;;;5013026;28;20053;-57
2023/05/08 03:11:09;;;;;;;16.70;6.07;;;;;;;;;;5011302;28;20531;-57
2023/05/08 03:13:38;;;;;;;14.10;6.97;;;;;;;;;;5011323;28;20806;-58
2023/05/08 03:16:05;;;;;;;13.52;7.85;;;;;;;;;;5009002;28;20096;-57
2023/05/08 03:18:34;;;;;;;16.90;8.45;;;;;;;;;;5012553;28;20046;-58
2023/05/08 03:21:01;;;;;;;17.08;8.35;;;;;;;;;;5009979;28;20038;-57
2023/05/08 03:23:29;;;;;;;12.68;7.53;;;;;;;;;;5012161;28;20049;-58
2023/05/08 03:25:57;;;;;;;14.05;7.55;;;;;;;;;;5012119;28;20456;-57
2023/05/08 03:28:23;;;;;;;13.57;6.10;;;;;;;;;;5011924;28;20042;-58
2023/05/08 03:30:50;;;;;;;18.77;7.38;;;;;;;;;;5025076;28;20046;-58
2023/05/08 03:33:17;;;;;;;12.07;6.85;;;;;;;;;;5012586;28;20046;-58
2023/05/08 03:35:44;;;;;;;13.05;7.53;;;;;;;;;;5011337;28;20042;-57
2023/05/08 03:38:10;;;;;;;16.70;7.97;;;;;;;;;;5012105;28;20057;-57
2023/05/08 03:40:37;;;;;;;12.00;7.78;;;;;;;;;;5011047;28;20056;-57
2023/05/08 03:43:05;;;;;;;15.13;6.22;;;;;;;;;;5011840;28;20105;-57
2023/05/08 03:45:34;;;;;;;12.57;5.85;;;;;;;;;;5012110;28;20673;-58
2023/05/08 03:48:01;;;;;;;12.43;7.85;;;;;;;;;;5009638;28;20072;-57
2023/05/08 03:50:28;;;;;;;14.15;6.78;;;;;;;;;;5011709;28;20524;-57
2023/05/08 03:52:54;;;;;;;13.00;7.43;;;;;;;;;;5029003;28;20888;-58
2023/05/08 03:55:20;;;;;;;12.00;5.38;;;;;;;;;;5013656;28;20034;-57
2023/05/08 03:58:06;;;;;;;11.55;7.22;;;;;;;;;;5011333;28;20130;-57
2023/05/08 04:00:45;;;;;;;11.45;5.45;;;;;;;;;;5010542;28;20042;-57
2023/05/08 04:03:20;;;;;;;14.82;5.88;;;;;;;;;;5011758;28;20073;-58
2023/05/08 04:06:05;;;;;;;13.00;6.78;;;;;;;;;;5012744;28;20099;-57
2023/05/08 04:08:39;;;;;;;11.65;6.82;;;;;;;;;;5013569;28;20545;-57
2023/05/08 04:11:21;;;;;;;13.40;6.43;;;;;;;;;;5012390;28;20069;-58
2023/05/08 04:13:49;;;;;;;13.50;7.10;;;;;;;;;;5012675;28;20109;-57
2023/05/08 04:16:27;;;;;;;13.82;6.95;;;;;;;;;;5011766;28;20042;-57
2023/05/08 04:19:02;;;;;;;12.07;6.28;;;;;;;;;;5009693;28;20046;-58
2023/05/08 04:21:30;;;;;;;12.02;6.38;;;;;;;;;;5011594;28;20042;-57
2023/05/08 04:23:57;;;;;;;14.70;8.10;;;;;;;;;;5010628;28;20050;-57
2023/05/08 04:26:23;;;;;;;12.98;7.50;;;;;;;;;;5010704;28;20041;-58
2023/05/08 04:28:49;;;;;;;16.15;7.53;;;;;;;;;;5012880;28;20511;-57
2023/05/08 04:31:15;;;;;;;17.92;7.95;;;;;;;;;;5010793;28;20491;-58
2023/05/08 04:33:45;;;;;;;14.82;7.15;;;;;;;;;;5009960;28;20582;-57
2023/05/08 04:36:12;;;;;;;15.07;7.57;;;;;;;;;;5010606;28;20042;-58
2023/05/08 04:38:38;;;;;;;21.23;7.60;;;;;;;;;;5012701;28;20046;-57
2023/05/08 04:41:04;;;;;;;13.93;7.07;;;;;;;;;;5009678;28;20045;-57
2023/05/08 04:43:30;;;;;;;13.55;6.45;;;;;;;;;;5010915;28;20516;-57
2023/05/08 04:45:56;;;;;;;16.98;7.55;;;;;;;;;;5008379;28;20042;-57
2023/05/08 04:48:23;;;;;;;15.73;7.25;;;;;;;;;;5024947;28;20054;-57
2023/05/08 04:50:49;;;;;;;14.02;8.35;;;;;;;;;;5007408;28;20052;-57
2023/05/08 04:53:15;;;;;;;14.63;6.35;;;;;;;;;;5011359;28;20049;-57
2023/05/08 04:55:42;;;;;;;17.83;7.10;;;;;;;;;;5011219;28;20559;-57
2023/05/08 04:58:09;;;;;;;16.17;7.97;;;;;;;;;;5011513;28;20053;-57
2023/05/08 05:00:36;;;;;;;21.70;8.68;;;;;;;;;;5009280;28;20046;-57
2023/05/08 05:03:02;;;;;;;18.65;8.77;;;;;;;;;;5009507;28;20524;-57
2023/05/08 05:05:28;;;;;;;20.65;8.57;;;;;;;;;;5009249;28;20132;-57
2023/05/08 05:07:54;;;;;;;19.13;8.90;;;;;;;;;;5013177;28;20694;-57
2023/05/08 05:10:20;;;;;;;24.88;12.20;;;;;;;;;;5012262;28;20038;-57
2023/05/08 05:12:46;;;;;;;19.40;9.07;;;;;;;;;;5010394;28;20159;-57
2023/05/08 05:15:12;;;;;;;19.13;8.65;;;;;;;;;;5010559;28;20588;-57
2023/05/08 05:17:38;;;;;;;29.70;8.82;;;;;;;;;;5010155;28;20113;-57
2023/05/08 05:20:06;;;;;;;20.15;12.75;;;;;;;;;;5010467;28;20043;-58
2023/05/08 05:22:32;;;;;;;20.50;10.18;;;;;;;;;;5011142;28;20046;-57
2023/05/08 05:24:58;;;;;;;17.95;9.15;;;;;;;;;;5011328;28;20053;-57
2023/05/08 05:27:25;;;;;;;15.88;6.80;;;;;;;;;;5011945;28;20096;-57
2023/05/08 05:29:51;;;;;;;13.90;7.20;;;;;;;;;;5013228;28;20073;-57
2023/05/08 05:32:17;;;;;;;15.85;9.25;;;;;;;;;;5013796;28;21225;-58
2023/05/08 05:34:43;;;;;;;16.65;8.05;;;;;;;;;;5015274;28;20053;-57
2023/05/08 05:37:09;;;;;;;20.58;9.40;;;;;;;;;;5014336;28;20041;-57
2023/05/08 05:39:36;;;;;;;14.52;8.93;;;;;;;;;;5015623;28;20100;-57
2023/05/08 05:42:02;;;;;;;16.67;8.05;;;;;;;;;;5008498;28;20060;-57
2023/05/08 05:44:28;;;;;;;16.52;7.90;;;;;;;;;;5014172;28;20057;-57
2023/05/08 05:46:55;;;;;;;16.95;7.88;;;;;;;;;;5015304;28;20046;-58
2023/05/08 05:49:21;;;;;;;17.00;9.68;;;;;;;;;;5015811;28;20049;-57
2023/05/08 05:51:47;;;;;;;18.90;9.77;;;;;;;;;;5013909;28;20068;-58
2023/05/08 05:54:14;;;;;;;15.75;11.52;;;;;;;;;;5015023;28;20042;-58
2023/05/08 05:56:40;;;;;;;18.35;10.13;;;;;;;;;;5013953;28;20038;-57
2023/05/08 05:59:06;;;;;;;14.95;9.05;;;;;;;;;;5015242;28;20613;-57
2023/05/08 06:01:32;;;;;;;17.38;8.60;;;;;;;;;;5012304;28;20567;-58
2023/05/08 06:03:58;;;;;;;16.55;9.32;;;;;;;;;;5012201;28;20432;-58
2023/05/08 06:06:24;;;;;;;19.02;8.50;;;;;;;;;;5012922;28;20053;-57
2023/05/08 06:08:50;;;;;;;17.30;8.98;;;;;;;;;;5012014;28;20046;-58
2023/05/08 06:11:16;;;;;;;15.38;8.98;;;;;;;;;;5013724;28;21297;-57
2023/05/08 06:13:43;;;;;;;14.10;8.48;;;;;;;;;;5029468;28;20991;-57
2023/05/08 06:16:09;;;;;;;16.23;8.68;;;;;;;;;;5030697;28;20056;-57
2023/05/08 06:18:35;;;;;;;13.43;8.20;;;;;;;;;;5013667;28;20121;-58
2023/05/08 06:21:01;;;;;;;16.02;9.07;;;;;;;;;;5010566;28;20074;-57
2023/05/08 06:23:27;;;;;;;13.80;8.68;;;;;;;;;;5011939;28;20483;-57
2023/05/08 06:25:53;;;;;;;11.77;8.13;;;;;;;;;;5008149;28;20046;-60
2023/05/08 06:28:21;;;;;;;14.02;8.80;;;;;;;;;;5008948;28;20057;-60
2023/05/08 06:30:47;;;;;;;14.30;8.65;;;;;;;;;;5010163;28;20030;-60
2023/05/08 06:33:13;;;;;;;13.35;7.85;;;;;;;;;;5015535;28;20042;-60
2023/05/08 06:35:39;;;;;;;13.10;7.43;;;;;;;;;;5012405;28;20050;-61
2023/05/08 06:38:06;;;;;;;12.18;6.35;;;;;;;;;;5027359;28;20128;-60
2023/05/08 06:40:32;;;;;;;9.63;6.32;;;;;;;;;;5014689;28;20042;-60
2023/05/08 06:42:58;;;;;;;9.48;6.07;;;;;;;;;;5006136;28;20057;-60
2023/05/08 06:45:24;;;;;;;9.77;6.30;;;;;;;;;;5008053;28;20046;-60
2023/05/08 06:47:50;;;;;;;11.93;6.93;;;;;;;;;;5012596;28;20038;-60
2023/05/08 06:50:16;;;;;;;8.50;5.05;;;;;;;;;;5011578;28;20100;-60
2023/05/08 06:52:42;;;;;;;8.20;4.68;;;;;;;;;;5015102;28;20755;-60
2023/05/08 06:55:09;;;;;;;9.20;5.32;;;;;;;;;;5013703;28;20056;-60
2023/05/08 06:57:35;;;;;;;9.07;6.35;;;;;;;;;;5013262;28;20042;-60
2023/05/08 07:00:02;;;;;;;10.55;5.75;;;;;;;;;;5013335;28;20049;-60
2023/05/08 07:02:28;;;;;;;11.18;5.85;;;;;;;;;;5011413;28;20046;-60
2023/05/08 07:04:54;;;;;;;10.20;6.60;;;;;;;;;;5012179;28;20133;-61
2023/05/08 07:07:20;;;;;;;9.20;6.22;;;;;;;;;;5026103;28;20097;-60
2023/05/08 07:09:46;;;;;;;9.48;5.47;;;;;;;;;;5014589;28;20089;-60
2023/05/08 07:12:15;;;;;;;9.40;6.15;;;;;;;;;;5014437;28;20164;-60
2023/05/08 07:14:41;;;;;;;8.77;6.20;;;;;;;;;;5011744;28;20527;-60
2023/05/08 07:17:07;;;;;;;10.57;6.03;;;;;;;;;;5008392;28;20041;-60
2023/05/08 07:19:35;;;;;;;11.05;5.45;;;;;;;;;;5007857;28;20209;-60
2023/05/08 07:22:01;;;;;;;11.95;6.25;;;;;;;;;;5042706;28;20062;-60
2023/05/08 07:24:28;;;;;;;12.80;5.90;;;;;;;;;;5010566;28;20046;-59
2023/05/08 07:26:54;;;;;;;9.35;5.65;;;;;;;;;;5008900;28;21085;-60
2023/05/08 07:29:20;;;;;;;11.82;7.15;;;;;;;;;;5005441;28;20514;-60
2023/05/08 07:31:47;;;;;;;9.57;5.60;;;;;;;;;;5007758;28;20150;-60
2023/05/08 07:34:13;;;;;;;9.65;6.00;;;;;;;;;;5009897;28;20088;-60
2023/05/08 07:36:40;;;;;;;7.60;4.80;;;;;;;;;;5007933;28;20088;-60
2023/05/08 07:39:06;;;;;;;7.85;4.88;;;;;;;;;;5007232;28;20244;-60
2023/05/08 07:41:32;;;;;;;7.45;4.65;;;;;;;;;;5011805;28;20227;-60
2023/05/08 07:43:58;;;;;;;13.43;6.72;;;;;;;;;;5012066;28;20616;-60
2023/05/08 07:46:24;;;;;;;12.63;5.45;;;;;;;;;;5010048;28;20194;-60
2023/05/08 07:48:50;;;;;;;7.22;5.13;;;;;;;;;;5009759;28;20117;-60
2023/05/08 07:51:17;;;;;;;8.15;4.72;;;;;;;;;;5007406;28;20085;-60
2023/05/08 07:53:43;;;;;;;10.95;4.95;;;;;;;;;;5009332;28;20057;-60
2023/05/08 07:56:09;;;;;;;8.40;6.22;;;;;;;;;;5014212;28;20033;-58
2023/05/08 07:58:35;;;;;;;10.30;4.90;;;;;;;;;;5007434;28;20042;-58
2023/05/08 08:01:02;;;;;;;8.95;4.45;;;;;;;;;;5008216;28;20047;-57
2023/05/08 08:03:28;;;;;;;10.88;4.60;;;;;;;;;;5006043;28;20064;-58
2023/05/08 08:05:54;;;;;;;10.02;6.10;;;;;;;;;;5007974;28;20555;-57
2023/05/08 08:08:20;;;;;;;10.25;5.78;;;;;;;;;;5013921;28;20070;-58
2023/05/08 08:10:46;;;;;;;11.18;6.90;;;;;;;;;;5009666;28;20520;-58
2023/05/08 08:13:12;;;;;;;7.07;5.38;;;;;;;;;;5011524;28;20046;-58
2023/05/08 08:15:38;;;;;;;8.15;5.43;;;;;;;;;;5008968;28;20050;-58
2023/05/08 08:18:04;;;;;;;8.40;5.35;;;;;;;;;;5014202;28;20052;-57
2023/05/08 08:20:30;;;;;;;7.50;4.93;;;;;;;;;;5009258;28;20050;-58
2023/05/08 08:22:57;;;;;;;8.85;4.22;;;;;;;;;;5003806;28;20147;-57
2023/05/08 08:25:23;;;;;;;6.13;3.58;;;;;;;;;;5004636;28;20042;-58
2023/05/08 08:27:49;;;;;;;9.80;4.32;;;;;;;;;;5011644;28;21017;-58
2023/05/08 08:30:15;;;;;;;9.80;5.10;;;;;;;;;;5010398;28;20181;-58
2023/05/08 08:32:41;;;;;;;7.65;4.35;;;;;;;;;;5012114;28;20099;-57
2023/05/08 08:35:08;;;;;;;9.05;4.82;;;;;;;;;;5010739;28;20046;-58
2023/05/08 08:37:34;;;;;;;9.73;4.03;;;;;;;;;;5010379;28;20516;-57
2023/05/08 08:40:00;;;;;;;8.10;4.57;;;;;;;;;;5039855;28;20045;-58
2023/05/08 08:42:27;;;;;;;8.93;4.38;;;;;;;;;;5008374;28;20050;-58
2023/05/08 08:44:53;;;;;;;5.63;3.42;;;;;;;;;;5009388;28;20056;-57
2023/05/08 08:47:21;;;;;;;8.82;3.83;;;;;;;;;;5010931;28;20459;-57
2023/05/08 08:49:48;;;;;;;6.00;3.15;;;;;;;;;;5006264;28;20042;-58
2023/05/08 08:52:37;;;;;;;7.28;3.42;;;;;;;;;;5008103;28;20160;-58
2023/05/08 08:55:05;;;;;;;11.35;4.20;;;;;;;;;;5004334;28;20140;-57
2023/05/08 08:57:32;;;;;;;7.00;3.35;;;;;;;;;;5038318;28;20096;-57
2023/05/08 09:00:00;;;;;;;7.93;3.25;;;;;;;;;;5007396;28;20049;-57
2023/05/08 09:02:27;;;;;;;8.18;4.45;;;;;;;;;;5009747;28;20050;-58
2023/05/08 09:04:53;;;;;;;4.82;3.33;;;;;;;;;;5008693;28;20042;-57
2023/05/08 09:07:19;;;;;;;6.25;3.30;;;;;;;;;;5012734;28;20046;-57
2023/05/08 09:09:47;;;;;;;7.93;3.67;;;;;;;;;;5012599;28;20516;-57
2023/05/08 09:12:13;;;;;;;5.32;3.17;;;;;;;;;;5005885;28;20328;-57
2023/05/08 09:14:39;;;;;;;7.65;4.07;;;;;;;;;;5008092;28;20085;-58
2023/05/08 09:17:05;;;;;;;6.13;3.38;;;;;;;;;;5012100;28;21168;-58
2023/05/08 09:19:32;;;;;;;7.22;3.40;;;;;;;;;;5012088;28;20042;-57
2023/05/08 09:22:00;;;;;;;6.80;3.50;;;;;;;;;;5007039;28;20125;-57
2023/05/08 09:24:26;;;;;;;7.65;2.92;;;;;;;;;;5014097;28;20084;-57
2023/05/08 09:26:53;;;;;;;5.07;3.10;;;;;;;;;;5015376;28;20117;-57
2023/05/08 09:29:22;;;;;;;3.83;2.13;;;;;;;;;;5016467;28;20048;-57
2023/05/08 09:31:49;;;;;;;7.15;3.10;;;;;;;;;;5010444;28;20499;-57
2023/05/08 09:34:29;;;;;;;5.38;2.45;;;;;;;;;;5008042;28;20058;-57
2023/05/08 09:36:56;;;;;;;3.58;2.33;;;;;;;;;;5013170;28;21272;-57
2023/05/08 09:39:23;;;;;;;3.50;2.17;;;;;;;;;;5012609;28;20622;-58
2023/05/08 09:42:03;;;;;;;3.75;2.40;;;;;;;;;;5014819;28;20914;-57
2023/05/08 09:44:42;;;;;;;7.40;2.88;;;;;;;;;;5014593;28;20169;-57
2023/05/08 09:47:10;;;;;;;5.78;2.20;;;;;;;;;;5012749;28;20467;-57
2023/05/08 09:49:38;;;;;;;5.63;2.30;;;;;;;;;;5014856;28;20104;-57
2023/05/08 09:52:04;;;;;;;5.80;2.40;;;;;;;;;;5046474;28;20043;-57
2023/05/08 09:54:30;;;;;;;7.22;3.03;;;;;;;;;;5007387;28;20041;-57
2023/05/08 09:56:57;;;;;;;4.70;2.85;;;;;;;;;;5014656;28;20069;-57
2023/05/08 09:59:27;;;;;;;4.55;2.22;;;;;;;;;;5032516;28;20046;-57
2023/05/08 10:01:53;;;;;;;4.80;2.40;;;;;;;;;;5014492;28;20044;-57
2023/05/08 10:04:35;;;;;;;6.72;2.83;;;;;;;;;;5016868;28;20049;-57
2023/05/08 10:07:01;;;;;;;3.88;2.58;;;;;;;;;;5012448;28;20053;-57
2023/05/08 10:09:27;;;;;;;5.75;2.83;;;;;;;;;;5015063;28;20042;-57
2023/05/08 10:11:54;;;;;;;6.85;2.47;;;;;;;;;;5013841;28;20425;-57
2023/05/08 10:14:21;;;;;;;5.97;3.20;;;;;;;;;;5014425;28;20042;-57
2023/05/08 10:16:48;;;;;;;3.97;2.67;;;;;;;;;;5012679;28;20046;-57
2023/05/08 10:19:18;;;;;;;3.97;2.63;;;;;;;;;;5015747;28;20096;-57
2023/05/08 10:21:48;;;;;;;3.20;2.35;;;;;;;;;;5015595;28;20042;-57
2023/05/08 10:24:20;;;;;;;4.57;2.75;;;;;;;;;;5013750;28;20564;-57
2023/05/08 10:26:56;;;;;;;2.67;1.88;;;;;;;;;;5015013;28;20042;-57
2023/05/08 10:29:27;;;;;;;5.65;2.88;;;;;;;;;;5046895;28;20173;-57
2023/05/08 10:31:56;;;;;;;5.13;2.67;;;;;;;;;;5047640;28;20046;-57
2023/05/08 10:34:22;;;;;;;6.63;2.97;;;;;;;;;;5031143;28;20049;-57
2023/05/08 10:36:51;;;;;;;8.88;6.47;;;;;;;;;;5016706;28;20041;-57
2023/05/08 10:39:18;;;;;;;9.15;6.15;;;;;;;;;;5015293;28;20042;-57
2023/05/08 10:41:44;;;;;;;8.88;5.80;;;;;;;;;;5012659;28;20054;-57
2023/05/08 10:44:10;;;;;;;3.53;2.55;;;;;;;;;;5010327;28;20864;-57
2023/05/08 10:46:39;;;;;;;4.55;2.90;;;;;;;;;;5010303;28;20186;-57
2023/05/08 10:49:06;;;;;;;5.78;3.15;;;;;;;;;;5026456;28;20042;-58
2023/05/08 10:51:37;;;;;;;6.80;4.80;;;;;;;;;;5010955;28;20173;-57
2023/05/08 10:54:11;;;;;;;6.53;3.75;;;;;;;;;;5011372;28;20046;-57
2023/05/08 10:56:38;;;;;;;4.75;2.60;;;;;;;;;;5007769;28;20049;-57
2023/05/08 10:59:05;;;;;;;4.65;2.45;;;;;;;;;;5011797;28;20042;-58
2023/05/08 11:01:31;;;;;;;3.80;1.70;;;;;;;;;;5012906;28;20046;-58
2023/05/08 11:03:57;;;;;;;2.63;1.52;;;;;;;;;;5014396;28;20131;-57
2023/05/08 11:06:42;;;;;;;2.55;1.50;;;;;;;;;;5013449;28;20042;-57
2023/05/08 11:09:08;;;;;;;3.10;2.03;;;;;;;;;;5010962;28;20044;-57
2023/05/08 11:11:38;;;;;;;4.57;1.80;;;;;;;;;;5015035;28;20073;-57
2023/05/08 11:14:06;;;;;;;3.38;1.77;;;;;;;;;;5012198;28;20046;-57
2023/05/08 11:16:51;;;;;;;2.83;1.58;;;;;;;;;;5012961;28;20077;-57
2023/05/08 11:19:21;;;;;;;4.22;1.88;;;;;;;;;;5009832;28;20093;-57
2023/05/08 11:22:06;;;;;;;2.75;1.70;;;;;;;;;;5011660;28;20607;-58
2023/05/08 11:24:35;;;;;;;3.35;2.42;;;;;;;;;;5014663;28;20112;-57
2023/05/08 11:27:01;;;;;;;2.78;1.80;;;;;;;;;;5015292;28;20542;-57
2023/05/08 11:29:27;;;;;;;4.57;2.10;;;;;;;;;;5014208;28;20971;-57
2023/05/08 11:31:53;;;;;;;7.93;2.25;;;;;;;;;;5009717;28;20046;-57
2023/05/08 11:34:38;;;;;;;3.13;1.75;;;;;;;;;;5012322;28;20049;-57
2023/05/08 11:37:08;;;;;;;2.65;1.80;;;;;;;;;;5013898;28;20504;-57
2023/05/08 11:39:34;;;;;;;4.05;2.00;;;;;;;;;;5012358;28;20096;-57
2023/05/08 11:42:19;;;;;;;4.65;2.67;;;;;;;;;;5010376;28;20076;-57
2023/05/08 11:44:45;;;;;;;2.55;1.77;;;;;;;;;;5000483;28;20054;-57
2023/05/08 11:47:15;;;;;;;3.28;1.30;;;;;;;;;;4995143;28;20038;-57
2023/05/08 11:49:41;;;;;;;2.67;1.85;;;;;;;;;;5009318;28;20061;-57
2023/05/08 11:52:07;;;;;;;2.78;1.45;;;;;;;;;;5008014;28;20046;-57
2023/05/08 11:54:33;;;;;;;4.85;1.92;;;;;;;;;;5010057;28;20049;-57
2023/05/08 11:57:00;;;;;;;3.35;1.85;;;;;;;;;;5009757;28;20856;-57
2023/05/08 11:59:26;;;;;;;3.85;1.63;;;;;;;;;;5009815;28;20038;-57
2023/05/08 12:01:53;;;;;;;2.30;1.60;;;;;;;;;;5007341;28;20069;-57
2023/05/08 12:04:19;;;;;;;2.53;1.30;;;;;;;;;;5011018;28;20081;-57
2023/05/08 12:06:47;;;;;;;4.65;1.70;;;;;;;;;;5010017;28;20064;-57
2023/05/08 12:09:17;;;;;;;2.92;1.33;;;;;;;;;;5009155;28;20073;-57
2023/05/08 12:11:44;;;;;;;6.40;2.42;;;;;;;;;;5009854;28;20149;-57
2023/05/08 12:14:11;;;;;;;3.22;1.95;;;;;;;;;;5008980;28;20606;-57
2023/05/08 12:16:38;;;;;;;3.38;2.55;;;;;;;;;;5009038;28;20053;-57
2023/05/08 12:19:08;;;;;;;1.95;1.35;;;;;;;;;;5007024;28;20038;-57
2023/05/08 12:21:35;;;;;;;3.97;3.55;;;;;;;;;;5007013;28;20041;-57
2023/05/08 12:24:04;;;;;;;2.95;1.98;;;;;;;;;;5041037;28;20046;-57
2023/05/08 12:26:34;;;;;;;6.45;5.18;;;;;;;;;;5025087;28;20563;-58
2023/05/08 12:29:00;;;;;;;5.60;2.40;;;;;;;;;;5011645;28;20081;-57
2023/05/08 12:31:26;;;;;;;5.53;1.90;;;;;;;;;;5005989;28;20891;-57
2023/05/08 12:33:53;;;;;;;2.72;1.83;;;;;;;;;;5010737;28;20109;-57
2023/05/08 12:36:19;;;;;;;5.60;1.42;;;;;;;;;;5006938;28;20038;-57
2023/05/08 12:38:46;;;;;;;2.55;1.17;;;;;;;;;;5008965;28;20046;-57
2023/05/08 12:41:12;;;;;;;3.45;1.25;;;;;;;;;;5011592;28;20133;-57
2023/05/08 12:43:38;;;;;;;1.48;1.20;;;;;;;;;;5014549;28;20579;-57
2023/05/08 12:46:04;;;;;;;3.50;1.83;;;;;;;;;;5017184;28;20034;-57
2023/05/08 12:48:31;;;;;;;2.78;1.48;;;;;;;;;;5013403;28;20046;-57
2023/05/08 12:51:04;;;;;;;2.10;1.55;;;;;;;;;;5009409;28;20112;-57
2023/05/08 12:53:31;;;;;;;3.50;1.67;;;;;;;;;;5016182;28;20116;-57
2023/05/08 12:56:00;;;;;;;5.88;2.58;;;;;;;;;;5017083;28;20049;-57
2023/05/08 12:58:27;;;;;;;3.05;1.60;;;;;;;;;;5017918;28;20033;-57
2023/05/08 13:01:02;;;;;;;2.80;1.30;;;;;;;;;;5012742;28;20136;-57
2023/05/08 13:03:29;;;;;;;2.92;1.95;;;;;;;;;;5014220;28;20607;-57
2023/05/08 13:05:56;;;;;;;4.95;2.55;;;;;;;;;;5017523;28;20594;-57
2023/05/08 13:08:35;;;;;;;3.38;1.90;;;;;;;;;;5017990;28;20034;-57
2023/05/08 13:11:02;;;;;;;1.98;1.17;;;;;;;;;;5016808;28;20056;-57
2023/05/08 13:13:32;;;;;;;2.42;1.17;;;;;;;;;;5015376;28;20048;-61
2023/05/08 13:16:01;;;;;;;1.73;1.10;;;;;;;;;;5024640;28;20140;-57
2023/05/08 13:18:27;;;;;;;1.52;1.00;;;;;;;;;;5016737;28;20065;-57
2023/05/08 13:20:55;;;;;;;4.47;1.50;;;;;;;;;;5016086;28;20409;-57
2023/05/08 13:23:21;;;;;;;3.00;1.45;;;;;;;;;;5016683;28;20637;-57
2023/05/08 13:25:47;;;;;;;2.20;1.40;;;;;;;;;;5017935;28;20042;-57
2023/05/08 13:28:13;;;;;;;2.72;1.70;;;;;;;;;;5016458;28;20042;-57
2023/05/08 13:30:39;;;;;;;3.90;1.90;;;;;;;;;;5015875;28;20038;-57
2023/05/08 13:33:05;;;;;;;3.92;1.27;;;;;;;;;;5016128;28;20575;-58
2023/05/08 13:35:32;;;;;;;2.45;1.55;;;;;;;;;;5012229;28;20220;-58
2023/05/08 13:37:58;;;;;;;1.40;1.23;;;;;;;;;;5012401;28;20046;-58
2023/05/08 13:40:25;;;;;;;2.97;1.30;;;;;;;;;;5027000;28;20050;-57
2023/05/08 13:42:51;;;;;;;2.10;1.30;;;;;;;;;;5015150;28;20041;-57
2023/05/08 13:45:17;;;;;;;3.35;1.83;;;;;;;;;;5017041;28;20943;-57
2023/05/08 13:47:44;;;;;;;2.90;1.40;;;;;;;;;;5016294;28;20129;-57
2023/05/08 13:50:11;;;;;;;5.60;1.90;;;;;;;;;;5015005;28;20046;-57
2023/05/08 13:52:38;;;;;;;2.88;1.40;;;;;;;;;;5016029;28;20049;-57
2023/05/08 13:55:08;;;;;;;2.65;1.55;;;;;;;;;;5015640;28;20140;-58
2023/05/08 13:57:34;;;;;;;2.08;1.73;;;;;;;;;;5015882;28;21352;-57
2023/05/08 14:00:00;;;;;;;2.30;1.35;;;;;;;;;;5015018;28;20092;-57
2023/05/08 14:02:26;;;;;;;2.35;1.40;;;;;;;;;;5030196;28;20038;-57
2023/05/08 14:04:53;;;;;;;4.25;1.60;;;;;;;;;;5013519;28;20105;-57
2023/05/08 14:07:19;;;;;;;2.03;1.75;;;;;;;;;;5016445;28;20408;-57
2023/05/08 14:09:46;;;;;;;4.10;1.70;;;;;;;;;;5015005;28;20073;-57
2023/05/08 14:12:12;;;;;;;2.72;1.40;;;;;;;;;;5014605;28;20472;-57
2023/05/08 14:14:38;;;;;;;2.65;1.55;;;;;;;;;;5012449;28;20117;-57
2023/05/08 14:17:04;;;;;;;3.50;1.98;;;;;;;;;;5014906;28;20046;-57
2023/05/08 14:19:30;;;;;;;1.92;1.30;;;;;;;;;;5012410;28;20554;-57
2023/05/08 14:21:57;;;;;;;2.03;1.35;;;;;;;;;;5008836;28;20854;-57
2023/05/08 14:24:23;;;;;;;3.83;1.55;;;;;;;;;;5014402;28;20037;-57
2023/05/08 14:26:49;;;;;;;4.38;1.40;;;;;;;;;;5014374;28;20089;-57
2023/05/08 14:29:17;;;;;;;2.90;2.00;;;;;;;;;;5015900;28;20042;-57
2023/05/08 14:31:43;;;;;;;2.30;1.50;;;;;;;;;;5016799;28;20050;-57
2023/05/08 14:34:09;;;;;;;3.17;1.60;;;;;;;;;;5015140;28;20074;-57
2023/05/08 14:36:35;;;;;;;2.55;1.25;;;;;;;;;;5012778;28;20046;-57
2023/05/08 14:39:02;;;;;;;2.47;1.50;;;;;;;;;;5011930;28;20576;-57
2023/05/08 14:41:28;;;;;;;2.25;1.88;;;;;;;;;;5014669;28;20062;-57